KLGA/LGA METAR and TAF weather

Enter ICAO airport designator
Station Type Date Time Source
KLGA METAR 2020/09/22 17:51 UTC NOAA

KLGA 221751Z 01010KT 10SM SCT250 21/01 A3001 RMK AO2 SLP163 T02110011 10211 20133 56041 $


Station Type Date Time Source
KLGA Decoded METAR 2020/09/22 17:51 UTC NOAA

NEW YORK LA GUARDIA AIRPORT , NY, United States (KLGA) 40-47N 73-53W 11M
Sep 22, 2020 - 01:51 PM EDT / 2020.09.22 1751 UTC
Wind: from the N (010 degrees) at 12 MPH (10 KT):0
Visibility: 10 mile(s):0
Sky conditions: partly cloudy
Temperature: 70.0 F (21.1 C)
Dew Point: 34.0 F (1.1 C)
Relative Humidity: 26%
Pressure (altimeter): 30.01 in. Hg (1016 hPa)
Pressure tendency: 0.12 inches (4.1 hPa) lower than three hours ago
ob: KLGA 221751Z 01010KT 10SM SCT250 21/01 A3001 RMK AO2 SLP163 T02110011 10211 20133 56041
cycle: 18

Station Type Date Time Source
KLGA TAF 2020/09/22 18:24 UTC NOAA

TAF KLGA 221723Z 2218/2324 32013G25KT P6SM FEW250
FM230300 32014KT P6SM SKC
FM230900 30012KT P6SM SKC
FM231600 30010G17KT P6SM SKC

Example: see airport list